sensor_id;sensor_type;location;lat;lon;timestamp;P1;durP1;ratioP1;P2;durP2;ratioP2
44572;SDS011;31762;45.420;10.072;2022-09-06T00:02:44;5.18;;;4.25;;
44572;SDS011;31762;45.420;10.072;2022-09-06T00:07:46;5.07;;;4.00;;
44572;SDS011;31762;45.420;10.072;2022-09-06T00:12:48;3.83;;;3.47;;
44572;SDS011;31762;45.420;10.072;2022-09-06T00:17:49;4.25;;;3.75;;
44572;SDS011;31762;45.420;10.072;2022-09-06T00:22:55;8.30;;;4.63;;
44572;SDS011;31762;45.420;10.072;2022-09-06T00:28:01;5.40;;;4.70;;
44572;SDS011;31762;45.420;10.072;2022-09-06T00:33:04;5.50;;;4.30;;
44572;SDS011;31762;45.420;10.072;2022-09-06T00:38:06;5.18;;;4.28;;
44572;SDS011;31762;45.420;10.072;2022-09-06T00:43:08;6.35;;;5.00;;
44572;SDS011;31762;45.420;10.072;2022-09-06T00:48:09;5.37;;;4.60;;
44572;SDS011;31762;45.420;10.072;2022-09-06T00:53:11;7.47;;;5.00;;
44572;SDS011;31762;45.420;10.072;2022-09-06T00:58:13;5.75;;;5.15;;
44572;SDS011;31762;45.420;10.072;2022-09-06T01:03:16;8.75;;;5.95;;
44572;SDS011;31762;45.420;10.072;2022-09-06T01:08:32;7.97;;;6.30;;
44572;SDS011;31762;45.420;10.072;2022-09-06T01:13:58;8.40;;;6.55;;
44572;SDS011;31762;45.420;10.072;2022-09-06T01:30:06;9.43;;;6.10;;
44572;SDS011;31762;45.420;10.072;2022-09-06T01:35:18;11.03;;;6.77;;
44572;SDS011;31762;45.420;10.072;2022-09-06T01:40:27;7.00;;;6.30;;
44572;SDS011;31762;45.420;10.072;2022-09-06T02:06:44;6.93;;;5.82;;
44572;SDS011;31762;45.420;10.072;2022-09-06T02:11:52;6.35;;;5.75;;
44572;SDS011;31762;45.420;10.072;2022-09-06T02:16:56;7.22;;;5.57;;
44572;SDS011;31762;45.420;10.072;2022-09-06T02:22:00;6.27;;;5.67;;
44572;SDS011;31762;45.420;10.072;2022-09-06T02:27:06;7.70;;;5.53;;
44572;SDS011;31762;45.420;10.072;2022-09-06T02:32:13;6.72;;;6.13;;
44572;SDS011;31762;45.420;10.072;2022-09-06T02:37:19;7.65;;;6.03;;
44572;SDS011;31762;45.420;10.072;2022-09-06T02:42:22;7.47;;;5.68;;
44572;SDS011;31762;45.420;10.072;2022-09-06T02:47:25;7.00;;;6.13;;
44572;SDS011;31762;45.420;10.072;2022-09-06T02:52:26;7.25;;;5.88;;
44572;SDS011;31762;45.420;10.072;2022-09-06T02:57:29;9.30;;;6.77;;
44572;SDS011;31762;45.420;10.072;2022-09-06T03:02:30;8.55;;;6.22;;
44572;SDS011;31762;45.420;10.072;2022-09-06T03:07:32;6.90;;;6.20;;
44572;SDS011;31762;45.420;10.072;2022-09-06T03:12:34;7.10;;;5.97;;
44572;SDS011;31762;45.420;10.072;2022-09-06T03:17:36;5.88;;;5.20;;
44572;SDS011;31762;45.420;10.072;2022-09-06T03:22:38;7.60;;;5.67;;
44572;SDS011;31762;45.420;10.072;2022-09-06T03:27:42;6.07;;;5.47;;
44572;SDS011;31762;45.420;10.072;2022-09-06T03:32:43;6.60;;;5.80;;
44572;SDS011;31762;45.420;10.072;2022-09-06T03:37:45;6.47;;;5.30;;
44572;SDS011;31762;45.420;10.072;2022-09-06T03:42:47;5.73;;;4.93;;
44572;SDS011;31762;45.420;10.072;2022-09-06T03:47:49;6.03;;;5.43;;
44572;SDS011;31762;45.420;10.072;2022-09-06T03:52:50;8.77;;;5.63;;
44572;SDS011;31762;45.420;10.072;2022-09-06T03:57:52;6.17;;;5.40;;
44572;SDS011;31762;45.420;10.072;2022-09-06T04:02:54;6.68;;;5.47;;
44572;SDS011;31762;45.420;10.072;2022-09-06T04:08:01;7.23;;;5.77;;
44572;SDS011;31762;45.420;10.072;2022-09-06T04:13:04;6.57;;;5.40;;
44572;SDS011;31762;45.420;10.072;2022-09-06T04:18:05;7.00;;;5.18;;
44572;SDS011;31762;45.420;10.072;2022-09-06T04:23:09;5.73;;;5.00;;
44572;SDS011;31762;45.420;10.072;2022-09-06T04:28:11;7.22;;;5.43;;
44572;SDS011;31762;45.420;10.072;2022-09-06T04:33:13;6.22;;;5.43;;
44572;SDS011;31762;45.420;10.072;2022-09-06T04:38:15;6.50;;;5.55;;
44572;SDS011;31762;45.420;10.072;2022-09-06T04:43:17;7.32;;;4.30;;
44572;SDS011;31762;45.420;10.072;2022-09-06T04:48:18;7.97;;;5.35;;
44572;SDS011;31762;45.420;10.072;2022-09-06T04:53:20;5.60;;;5.07;;
44572;SDS011;31762;45.420;10.072;2022-09-06T04:58:22;6.70;;;5.03;;
44572;SDS011;31762;45.420;10.072;2022-09-06T05:03:24;5.57;;;5.00;;
44572;SDS011;31762;45.420;10.072;2022-09-06T05:08:26;6.80;;;5.18;;
44572;SDS011;31762;45.420;10.072;2022-09-06T05:13:28;5.50;;;4.88;;
44572;SDS011;31762;45.420;10.072;2022-09-06T05:18:29;7.03;;;5.30;;
44572;SDS011;31762;45.420;10.072;2022-09-06T05:23:31;8.70;;;5.93;;
44572;SDS011;31762;45.420;10.072;2022-09-06T05:28:33;10.30;;;6.30;;
44572;SDS011;31762;45.420;10.072;2022-09-06T05:33:35;9.07;;;6.40;;
44572;SDS011;31762;45.420;10.072;2022-09-06T05:38:37;10.98;;;6.70;;
44572;SDS011;31762;45.420;10.072;2022-09-06T05:43:39;6.73;;;5.67;;
44572;SDS011;31762;45.420;10.072;2022-09-06T05:48:41;6.57;;;5.68;;
44572;SDS011;31762;45.420;10.072;2022-09-06T05:53:43;9.03;;;6.40;;
44572;SDS011;31762;45.420;10.072;2022-09-06T05:58:45;8.75;;;6.57;;
44572;SDS011;31762;45.420;10.072;2022-09-06T06:03:54;12.25;;;8.10;;
44572;SDS011;31762;45.420;10.072;2022-09-06T06:09:00;11.50;;;8.30;;
44572;SDS011;31762;45.420;10.072;2022-09-06T06:14:02;12.23;;;8.70;;
44572;SDS011;31762;45.420;10.072;2022-09-06T06:19:04;9.00;;;7.68;;
44572;SDS011;31762;45.420;10.072;2022-09-06T06:24:06;8.55;;;7.20;;
44572;SDS011;31762;45.420;10.072;2022-09-06T06:29:08;7.47;;;6.70;;
44572;SDS011;31762;45.420;10.072;2022-09-06T06:34:10;7.87;;;6.33;;
44572;SDS011;31762;45.420;10.072;2022-09-06T06:39:12;8.75;;;7.22;;
44572;SDS011;31762;45.420;10.072;2022-09-06T06:44:13;8.82;;;6.70;;
44572;SDS011;31762;45.420;10.072;2022-09-06T06:49:15;9.38;;;7.53;;
44572;SDS011;31762;45.420;10.072;2022-09-06T06:54:17;7.87;;;7.07;;
44572;SDS011;31762;45.420;10.072;2022-09-06T06:59:19;8.25;;;7.30;;
44572;SDS011;31762;45.420;10.072;2022-09-06T07:04:20;7.88;;;6.22;;
44572;SDS011;31762;45.420;10.072;2022-09-06T07:09:22;9.17;;;7.53;;
44572;SDS011;31762;45.420;10.072;2022-09-06T07:14:24;9.50;;;7.27;;
44572;SDS011;31762;45.420;10.072;2022-09-06T07:19:26;8.52;;;6.75;;
44572;SDS011;31762;45.420;10.072;2022-09-06T07:24:48;8.20;;;6.90;;
44572;SDS011;31762;45.420;10.072;2022-09-06T07:29:49;8.88;;;7.28;;
44572;SDS011;31762;45.420;10.072;2022-09-06T07:34:51;8.60;;;7.15;;
44572;SDS011;31762;45.420;10.072;2022-09-06T07:39:53;9.23;;;6.97;;
44572;SDS011;31762;45.420;10.072;2022-09-06T07:44:55;9.13;;;7.05;;
44572;SDS011;31762;45.420;10.072;2022-09-06T07:49:57;8.60;;;7.70;;
44572;SDS011;31762;45.420;10.072;2022-09-06T07:55:18;7.50;;;6.67;;
44572;SDS011;31762;45.420;10.072;2022-09-06T08:00:20;7.13;;;6.43;;
44572;SDS011;31762;45.420;10.072;2022-09-06T08:05:22;8.48;;;6.28;;
44572;SDS011;31762;45.420;10.072;2022-09-06T08:10:48;10.70;;;7.53;;
44572;SDS011;31762;45.420;10.072;2022-09-06T08:16:24;8.50;;;6.97;;
44572;SDS011;31762;45.420;10.072;2022-09-06T08:21:19;7.85;;;6.70;;
44572;SDS011;31762;45.420;10.072;2022-09-06T08:26:22;8.18;;;7.38;;
44572;SDS011;31762;45.420;10.072;2022-09-06T08:31:25;9.70;;;7.32;;
44572;SDS011;31762;45.420;10.072;2022-09-06T08:36:28;8.95;;;7.93;;
44572;SDS011;31762;45.420;10.072;2022-09-06T08:46:50;8.97;;;6.60;;
44572;SDS011;31762;45.420;10.072;2022-09-06T08:52:04;9.63;;;7.50;;
44572;SDS011;31762;45.420;10.072;2022-09-06T09:03:08;7.25;;;6.50;;
44572;SDS011;31762;45.420;10.072;2022-09-06T09:19:10;13.18;;;7.18;;
44572;SDS011;31762;45.420;10.072;2022-09-06T09:24:13;9.00;;;5.50;;
44572;SDS011;31762;45.420;10.072;2022-09-06T09:29:16;7.90;;;6.50;;
44572;SDS011;31762;45.420;10.072;2022-09-06T09:34:29;6.63;;;5.93;;
44572;SDS011;31762;45.420;10.072;2022-09-06T09:39:34;7.13;;;5.90;;
44572;SDS011;31762;45.420;10.072;2022-09-06T09:44:41;5.57;;;5.07;;
44572;SDS011;31762;45.420;10.072;2022-09-06T09:49:44;6.97;;;5.07;;
44572;SDS011;31762;45.420;10.072;2022-09-06T09:54:46;5.65;;;4.50;;
44572;SDS011;31762;45.420;10.072;2022-09-06T09:59:50;4.95;;;4.45;;
44572;SDS011;31762;45.420;10.072;2022-09-06T10:05:39;5.95;;;4.60;;
44572;SDS011;31762;45.420;10.072;2022-09-06T10:15:46;4.60;;;4.18;;
44572;SDS011;31762;45.420;10.072;2022-09-06T10:20:52;5.53;;;4.20;;
44572;SDS011;31762;45.420;10.072;2022-09-06T10:26:04;5.60;;;4.78;;
44572;SDS011;31762;45.420;10.072;2022-09-06T10:31:17;8.53;;;5.80;;
44572;SDS011;31762;45.420;10.072;2022-09-06T10:42:09;5.30;;;4.40;;
44572;SDS011;31762;45.420;10.072;2022-09-06T10:47:22;4.30;;;3.60;;
44572;SDS011;31762;45.420;10.072;2022-09-06T10:52:49;4.80;;;4.30;;
44572;SDS011;31762;45.420;10.072;2022-09-06T10:57:54;5.55;;;3.95;;
44572;SDS011;31762;45.420;10.072;2022-09-06T11:03:16;5.50;;;4.37;;
44572;SDS011;31762;45.420;10.072;2022-09-06T11:08:46;3.78;;;3.42;;
44572;SDS011;31762;45.420;10.072;2022-09-06T11:13:58;4.27;;;3.53;;
44572;SDS011;31762;45.420;10.072;2022-09-06T11:19:07;3.67;;;3.37;;
44572;SDS011;31762;45.420;10.072;2022-09-06T11:24:16;3.50;;;2.70;;
44572;SDS011;31762;45.420;10.072;2022-09-06T11:29:53;3.47;;;3.05;;
44572;SDS011;31762;45.420;10.072;2022-09-06T11:34:56;4.82;;;3.78;;
44572;SDS011;31762;45.420;10.072;2022-09-06T11:45:40;6.68;;;4.80;;
44572;SDS011;31762;45.420;10.072;2022-09-06T12:06:22;5.25;;;4.75;;
44572;SDS011;31762;45.420;10.072;2022-09-06T12:21:56;5.47;;;4.15;;
44572;SDS011;31762;45.420;10.072;2022-09-06T12:27:10;5.90;;;4.60;;
44572;SDS011;31762;45.420;10.072;2022-09-06T12:32:12;4.43;;;3.25;;
44572;SDS011;31762;45.420;10.072;2022-09-06T12:37:31;4.78;;;4.30;;
44572;SDS011;31762;45.420;10.072;2022-09-06T12:42:37;5.78;;;4.38;;
44572;SDS011;31762;45.420;10.072;2022-09-06T12:47:39;5.53;;;4.95;;
44572;SDS011;31762;45.420;10.072;2022-09-06T12:57:53;4.55;;;3.35;;
44572;SDS011;31762;45.420;10.072;2022-09-06T13:08:32;6.75;;;4.82;;
44572;SDS011;31762;45.420;10.072;2022-09-06T13:13:48;5.90;;;3.78;;
44572;SDS011;31762;45.420;10.072;2022-09-06T13:19:02;3.90;;;2.90;;
44572;SDS011;31762;45.420;10.072;2022-09-06T13:29:34;3.58;;;2.08;;
44572;SDS011;31762;45.420;10.072;2022-09-06T13:34:36;3.87;;;2.80;;
44572;SDS011;31762;45.420;10.072;2022-09-06T13:39:39;3.57;;;2.33;;
44572;SDS011;31762;45.420;10.072;2022-09-06T13:44:42;4.50;;;3.05;;
44572;SDS011;31762;45.420;10.072;2022-09-06T13:49:44;3.60;;;2.42;;
44572;SDS011;31762;45.420;10.072;2022-09-06T13:54:46;3.25;;;2.47;;
44572;SDS011;31762;45.420;10.072;2022-09-06T13:59:47;3.80;;;3.13;;
44572;SDS011;31762;45.420;10.072;2022-09-06T14:04:49;5.63;;;3.17;;
44572;SDS011;31762;45.420;10.072;2022-09-06T14:09:51;3.95;;;2.70;;
44572;SDS011;31762;45.420;10.072;2022-09-06T14:14:53;3.03;;;2.22;;
44572;SDS011;31762;45.420;10.072;2022-09-06T14:19:54;2.63;;;2.28;;
44572;SDS011;31762;45.420;10.072;2022-09-06T14:24:56;3.00;;;2.50;;
44572;SDS011;31762;45.420;10.072;2022-09-06T14:29:58;4.55;;;2.38;;
44572;SDS011;31762;45.420;10.072;2022-09-06T14:35:00;2.67;;;2.47;;
44572;SDS011;31762;45.420;10.072;2022-09-06T14:40:01;4.00;;;2.33;;
44572;SDS011;31762;45.420;10.072;2022-09-06T14:45:04;3.58;;;2.90;;
44572;SDS011;31762;45.420;10.072;2022-09-06T14:50:06;3.30;;;2.35;;
44572;SDS011;31762;45.420;10.072;2022-09-06T14:55:08;2.13;;;1.90;;
44572;SDS011;31762;45.420;10.072;2022-09-06T15:00:10;4.60;;;2.35;;
44572;SDS011;31762;45.420;10.072;2022-09-06T15:05:12;2.92;;;2.17;;
44572;SDS011;31762;45.420;10.072;2022-09-06T15:10:14;2.50;;;1.90;;
44572;SDS011;31762;45.420;10.072;2022-09-06T15:15:16;2.38;;;1.75;;
44572;SDS011;31762;45.420;10.072;2022-09-06T15:20:18;3.65;;;2.22;;
44572;SDS011;31762;45.420;10.072;2022-09-06T15:25:20;2.80;;;1.80;;
44572;SDS011;31762;45.420;10.072;2022-09-06T15:30:21;2.43;;;1.83;;
44572;SDS011;31762;45.420;10.072;2022-09-06T15:35:23;2.58;;;1.60;;
44572;SDS011;31762;45.420;10.072;2022-09-06T15:40:25;3.17;;;1.70;;
44572;SDS011;31762;45.420;10.072;2022-09-06T15:45:26;2.65;;;2.30;;
44572;SDS011;31762;45.420;10.072;2022-09-06T15:50:28;4.38;;;1.88;;
44572;SDS011;31762;45.420;10.072;2022-09-06T15:55:56;1.83;;;1.50;;
44572;SDS011;31762;45.420;10.072;2022-09-06T16:01:18;3.28;;;1.83;;
44572;SDS011;31762;45.420;10.072;2022-09-06T16:06:25;2.85;;;2.25;;
44572;SDS011;31762;45.420;10.072;2022-09-06T16:11:28;2.70;;;1.40;;
44572;SDS011;31762;45.420;10.072;2022-09-06T16:16:31;2.90;;;1.50;;
44572;SDS011;31762;45.420;10.072;2022-09-06T16:21:35;3.60;;;1.60;;
44572;SDS011;31762;45.420;10.072;2022-09-06T16:26:40;2.08;;;1.60;;
44572;SDS011;31762;45.420;10.072;2022-09-06T16:31:43;2.95;;;1.90;;
44572;SDS011;31762;45.420;10.072;2022-09-06T16:36:46;1.90;;;1.70;;
44572;SDS011;31762;45.420;10.072;2022-09-06T16:41:48;4.10;;;1.70;;
44572;SDS011;31762;45.420;10.072;2022-09-06T16:46:49;4.88;;;1.70;;
44572;SDS011;31762;45.420;10.072;2022-09-06T16:51:51;2.17;;;1.93;;
44572;SDS011;31762;45.420;10.072;2022-09-06T16:56:53;7.30;;;3.33;;
44572;SDS011;31762;45.420;10.072;2022-09-06T17:01:54;2.97;;;2.07;;
44572;SDS011;31762;45.420;10.072;2022-09-06T17:06:56;2.15;;;1.30;;
44572;SDS011;31762;45.420;10.072;2022-09-06T17:11:58;4.63;;;1.93;;
44572;SDS011;31762;45.420;10.072;2022-09-06T17:17:00;3.78;;;1.58;;
44572;SDS011;31762;45.420;10.072;2022-09-06T17:22:02;1.75;;;1.25;;
44572;SDS011;31762;45.420;10.072;2022-09-06T17:27:05;3.92;;;1.30;;
44572;SDS011;31762;45.420;10.072;2022-09-06T17:32:07;6.40;;;2.30;;
44572;SDS011;31762;45.420;10.072;2022-09-06T17:37:09;3.50;;;1.80;;
44572;SDS011;31762;45.420;10.072;2022-09-06T17:42:11;3.92;;;1.60;;
44572;SDS011;31762;45.420;10.072;2022-09-06T17:47:12;4.37;;;1.47;;
44572;SDS011;31762;45.420;10.072;2022-09-06T17:52:14;2.10;;;1.40;;
44572;SDS011;31762;45.420;10.072;2022-09-06T17:57:16;3.93;;;1.60;;
44572;SDS011;31762;45.420;10.072;2022-09-06T18:02:18;3.13;;;1.33;;
44572;SDS011;31762;45.420;10.072;2022-09-06T18:07:19;3.60;;;1.20;;
44572;SDS011;31762;45.420;10.072;2022-09-06T18:12:21;5.72;;;1.58;;
44572;SDS011;31762;45.420;10.072;2022-09-06T18:17:23;4.13;;;2.13;;
44572;SDS011;31762;45.420;10.072;2022-09-06T18:22:27;5.70;;;2.53;;
44572;SDS011;31762;45.420;10.072;2022-09-06T18:27:28;6.70;;;2.92;;
44572;SDS011;31762;45.420;10.072;2022-09-06T18:32:32;6.07;;;2.53;;
44572;SDS011;31762;45.420;10.072;2022-09-06T18:37:34;4.53;;;2.23;;
44572;SDS011;31762;45.420;10.072;2022-09-06T18:42:40;4.15;;;2.20;;
44572;SDS011;31762;45.420;10.072;2022-09-06T18:47:43;3.20;;;1.60;;
44572;SDS011;31762;45.420;10.072;2022-09-06T18:52:44;7.70;;;2.35;;
44572;SDS011;31762;45.420;10.072;2022-09-06T18:57:46;4.60;;;1.67;;
44572;SDS011;31762;45.420;10.072;2022-09-06T19:02:48;4.10;;;1.77;;
44572;SDS011;31762;45.420;10.072;2022-09-06T19:07:49;4.17;;;1.40;;
44572;SDS011;31762;45.420;10.072;2022-09-06T19:12:52;2.77;;;1.60;;
44572;SDS011;31762;45.420;10.072;2022-09-06T19:17:53;2.63;;;1.73;;
44572;SDS011;31762;45.420;10.072;2022-09-06T19:22:55;2.97;;;2.20;;
44572;SDS011;31762;45.420;10.072;2022-09-06T19:27:57;2.90;;;2.10;;
44572;SDS011;31762;45.420;10.072;2022-09-06T19:32:59;5.47;;;1.80;;
44572;SDS011;31762;45.420;10.072;2022-09-06T19:38:00;3.17;;;2.47;;
44572;SDS011;31762;45.420;10.072;2022-09-06T19:43:02;2.45;;;2.17;;
44572;SDS011;31762;45.420;10.072;2022-09-06T19:48:05;2.75;;;2.22;;
44572;SDS011;31762;45.420;10.072;2022-09-06T19:53:07;6.72;;;2.80;;
44572;SDS011;31762;45.420;10.072;2022-09-06T19:58:08;6.53;;;3.53;;
44572;SDS011;31762;45.420;10.072;2022-09-06T20:03:10;6.30;;;3.03;;
44572;SDS011;31762;45.420;10.072;2022-09-06T20:08:12;5.18;;;3.38;;
44572;SDS011;31762;45.420;10.072;2022-09-06T20:13:14;8.20;;;3.50;;
44572;SDS011;31762;45.420;10.072;2022-09-06T20:18:16;4.00;;;3.17;;
44572;SDS011;31762;45.420;10.072;2022-09-06T20:23:18;4.90;;;3.92;;
44572;SDS011;31762;45.420;10.072;2022-09-06T20:28:20;6.53;;;3.60;;
44572;SDS011;31762;45.420;10.072;2022-09-06T20:33:22;5.38;;;3.70;;
44572;SDS011;31762;45.420;10.072;2022-09-06T20:38:23;5.97;;;3.63;;
44572;SDS011;31762;45.420;10.072;2022-09-06T20:43:25;8.93;;;4.00;;
44572;SDS011;31762;45.420;10.072;2022-09-06T20:48:27;4.53;;;4.03;;
44572;SDS011;31762;45.420;10.072;2022-09-06T20:53:34;4.28;;;3.80;;
44572;SDS011;31762;45.420;10.072;2022-09-06T20:58:37;5.25;;;3.38;;
44572;SDS011;31762;45.420;10.072;2022-09-06T21:03:40;5.60;;;3.83;;
44572;SDS011;31762;45.420;10.072;2022-09-06T21:08:43;8.75;;;4.68;;
44572;SDS011;31762;45.420;10.072;2022-09-06T21:13:48;4.25;;;3.80;;
44572;SDS011;31762;45.420;10.072;2022-09-06T21:18:52;3.83;;;3.50;;
44572;SDS011;31762;45.420;10.072;2022-09-06T21:23:55;5.60;;;4.37;;
44572;SDS011;31762;45.420;10.072;2022-09-06T21:28:57;5.87;;;4.80;;
44572;SDS011;31762;45.420;10.072;2022-09-06T21:34:03;6.63;;;4.40;;
44572;SDS011;31762;45.420;10.072;2022-09-06T21:39:07;5.50;;;4.28;;
44572;SDS011;31762;45.420;10.072;2022-09-06T21:44:10;5.80;;;4.83;;
44572;SDS011;31762;45.420;10.072;2022-09-06T21:49:12;7.53;;;5.10;;
44572;SDS011;31762;45.420;10.072;2022-09-06T21:54:14;7.67;;;5.60;;
44572;SDS011;31762;45.420;10.072;2022-09-06T21:59:16;6.63;;;4.80;;
44572;SDS011;31762;45.420;10.072;2022-09-06T22:04:17;6.95;;;5.03;;
44572;SDS011;31762;45.420;10.072;2022-09-06T22:09:19;4.55;;;4.15;;
44572;SDS011;31762;45.420;10.072;2022-09-06T22:14:21;5.13;;;4.10;;
44572;SDS011;31762;45.420;10.072;2022-09-06T22:19:23;5.93;;;4.32;;
44572;SDS011;31762;45.420;10.072;2022-09-06T22:24:25;6.88;;;4.88;;
44572;SDS011;31762;45.420;10.072;2022-09-06T22:29:27;6.70;;;5.10;;
44572;SDS011;31762;45.420;10.072;2022-09-06T22:34:28;5.35;;;4.40;;
44572;SDS011;31762;45.420;10.072;2022-09-06T22:39:30;8.98;;;5.15;;
44572;SDS011;31762;45.420;10.072;2022-09-06T22:44:32;8.63;;;5.00;;
44572;SDS011;31762;45.420;10.072;2022-09-06T22:49:34;7.75;;;5.30;;
44572;SDS011;31762;45.420;10.072;2022-09-06T22:54:35;7.70;;;5.53;;
44572;SDS011;31762;45.420;10.072;2022-09-06T22:59:37;6.68;;;5.45;;
44572;SDS011;31762;45.420;10.072;2022-09-06T23:04:39;6.68;;;5.53;;
44572;SDS011;31762;45.420;10.072;2022-09-06T23:09:41;6.43;;;5.15;;
44572;SDS011;31762;45.420;10.072;2022-09-06T23:14:43;6.13;;;5.43;;
44572;SDS011;31762;45.420;10.072;2022-09-06T23:19:44;8.68;;;5.90;;
44572;SDS011;31762;45.420;10.072;2022-09-06T23:24:46;6.88;;;5.93;;
44572;SDS011;31762;45.420;10.072;2022-09-06T23:29:48;7.53;;;5.43;;
44572;SDS011;31762;45.420;10.072;2022-09-06T23:34:49;6.38;;;5.75;;
44572;SDS011;31762;45.420;10.072;2022-09-06T23:39:51;6.67;;;5.30;;
44572;SDS011;31762;45.420;10.072;2022-09-06T23:44:53;6.25;;;5.28;;
44572;SDS011;31762;45.420;10.072;2022-09-06T23:49:55;6.60;;;5.45;;
44572;SDS011;31762;45.420;10.072;2022-09-06T23:54:56;9.17;;;6.37;;
44572;SDS011;31762;45.420;10.072;2022-09-06T23:59:58;6.15;;;5.55;;
